sensor_id;sensor_type;location;lat;lon;timestamp;pressure;altitude;pressure_sealevel;temperature;humidity
26436;BME280;15351;52.408;16.826;2023-02-28T00:00:27;102441.70;;;2.02;62.90
26436;BME280;15351;52.408;16.826;2023-02-28T00:03:14;102444.65;;;2.00;63.32
26436;BME280;15351;52.408;16.826;2023-02-28T00:05:42;102447.02;;;2.02;63.45
26436;BME280;15351;52.408;16.826;2023-02-28T00:08:10;102451.64;;;2.02;63.41
26436;BME280;15351;52.408;16.826;2023-02-28T00:11:04;102446.41;;;2.00;63.33
26436;BME280;15351;52.408;16.826;2023-02-28T00:13:35;102450.19;;;1.99;63.13
26436;BME280;15351;52.408;16.826;2023-02-28T00:16:24;102450.52;;;1.99;63.08
26436;BME280;15351;52.408;16.826;2023-02-28T00:18:53;102447.42;;;1.98;62.93
26436;BME280;15351;52.408;16.826;2023-02-28T00:21:20;102448.56;;;1.97;63.12
26436;BME280;15351;52.408;16.826;2023-02-28T00:23:47;102448.27;;;1.95;63.33
26436;BME280;15351;52.408;16.826;2023-02-28T00:26:15;102445.95;;;1.92;63.33
26436;BME280;15351;52.408;16.826;2023-02-28T00:28:44;102447.37;;;1.89;63.34
26436;BME280;15351;52.408;16.826;2023-02-28T00:31:11;102447.23;;;1.87;63.19
26436;BME280;15351;52.408;16.826;2023-02-28T00:33:38;102445.14;;;1.86;63.25
26436;BME280;15351;52.408;16.826;2023-02-28T00:36:09;102443.10;;;1.81;63.10
26436;BME280;15351;52.408;16.826;2023-02-28T00:38:38;102444.85;;;1.78;63.44
26436;BME280;15351;52.408;16.826;2023-02-28T00:41:05;102451.30;;;1.77;63.56
26436;BME280;15351;52.408;16.826;2023-02-28T00:43:41;102448.14;;;1.73;63.54
26436;BME280;15351;52.408;16.826;2023-02-28T00:46:09;102451.25;;;1.70;63.41
26436;BME280;15351;52.408;16.826;2023-02-28T00:48:37;102448.53;;;1.68;63.44
26436;BME280;15351;52.408;16.826;2023-02-28T00:51:04;102451.06;;;1.67;63.46
26436;BME280;15351;52.408;16.826;2023-02-28T00:53:36;102450.88;;;1.64;63.35
26436;BME280;15351;52.408;16.826;2023-02-28T00:56:04;102453.77;;;1.59;63.57
26436;BME280;15351;52.408;16.826;2023-02-28T00:58:32;102453.45;;;1.58;63.60
26436;BME280;15351;52.408;16.826;2023-02-28T01:01:02;102451.84;;;1.58;63.80
26436;BME280;15351;52.408;16.826;2023-02-28T01:03:29;102455.45;;;1.57;63.70
26436;BME280;15351;52.408;16.826;2023-02-28T01:05:56;102452.23;;;1.50;63.60
26436;BME280;15351;52.408;16.826;2023-02-28T01:08:28;102457.20;;;1.43;63.68
26436;BME280;15351;52.408;16.826;2023-02-28T01:10:54;102456.54;;;1.34;63.74
26436;BME280;15351;52.408;16.826;2023-02-28T01:13:22;102457.48;;;1.29;63.93
26436;BME280;15351;52.408;16.826;2023-02-28T01:15:53;102457.89;;;1.28;64.12
26436;BME280;15351;52.408;16.826;2023-02-28T01:18:22;102452.62;;;1.27;64.15
26436;BME280;15351;52.408;16.826;2023-02-28T01:20:54;102452.64;;;1.27;63.89
26436;BME280;15351;52.408;16.826;2023-02-28T01:23:23;102446.91;;;1.28;63.95
26436;BME280;15351;52.408;16.826;2023-02-28T01:25:51;102448.96;;;1.26;63.76
26436;BME280;15351;52.408;16.826;2023-02-28T01:28:21;102445.58;;;1.22;63.95
26436;BME280;15351;52.408;16.826;2023-02-28T01:30:49;102447.83;;;1.16;64.01
26436;BME280;15351;52.408;16.826;2023-02-28T01:33:16;102444.36;;;1.14;64.29
26436;BME280;15351;52.408;16.826;2023-02-28T01:35:42;102447.38;;;1.18;64.17
26436;BME280;15351;52.408;16.826;2023-02-28T01:38:15;102443.73;;;1.20;64.02
26436;BME280;15351;52.408;16.826;2023-02-28T01:40:41;102439.68;;;1.20;63.86
26436;BME280;15351;52.408;16.826;2023-02-28T01:43:26;102446.27;;;1.15;63.72
26436;BME280;15351;52.408;16.826;2023-02-28T01:45:56;102445.73;;;1.08;63.78
26436;BME280;15351;52.408;16.826;2023-02-28T01:48:31;102441.28;;;1.01;63.99
26436;BME280;15351;52.408;16.826;2023-02-28T01:51:06;102437.52;;;0.98;64.31
26436;BME280;15351;52.408;16.826;2023-02-28T01:53:49;102443.48;;;0.99;64.36
26436;BME280;15351;52.408;16.826;2023-02-28T01:56:26;102442.42;;;0.99;64.17
26436;BME280;15351;52.408;16.826;2023-02-28T01:58:56;102440.59;;;0.97;64.27
26436;BME280;15351;52.408;16.826;2023-02-28T02:01:26;102440.31;;;0.95;64.28
26436;BME280;15351;52.408;16.826;2023-02-28T02:03:56;102437.25;;;0.92;64.33
26436;BME280;15351;52.408;16.826;2023-02-28T02:06:29;102434.95;;;0.88;64.38
26436;BME280;15351;52.408;16.826;2023-02-28T02:08:57;102433.27;;;0.86;64.60
26436;BME280;15351;52.408;16.826;2023-02-28T02:11:25;102432.77;;;0.89;64.60
26436;BME280;15351;52.408;16.826;2023-02-28T02:14:24;102436.52;;;0.88;64.50
26436;BME280;15351;52.408;16.826;2023-02-28T02:31:43;102441.37;;;0.71;64.68
26436;BME280;15351;52.408;16.826;2023-02-28T02:40:33;102435.04;;;0.63;64.56
26436;BME280;15351;52.408;16.826;2023-02-28T02:45:55;102440.39;;;0.58;65.00
26436;BME280;15351;52.408;16.826;2023-02-28T02:48:29;102438.34;;;0.56;64.89
26436;BME280;15351;52.408;16.826;2023-02-28T02:51:14;102436.19;;;0.52;64.88
26436;BME280;15351;52.408;16.826;2023-02-28T02:54:13;102438.50;;;0.52;64.74
26436;BME280;15351;52.408;16.826;2023-02-28T02:57:10;102434.91;;;0.49;64.80
26436;BME280;15351;52.408;16.826;2023-02-28T02:59:41;102431.57;;;0.49;64.88
26436;BME280;15351;52.408;16.826;2023-02-28T03:02:14;102432.31;;;0.52;64.92
26436;BME280;15351;52.408;16.826;2023-02-28T03:04:52;102432.22;;;0.50;64.86
26436;BME280;15351;52.408;16.826;2023-02-28T03:07:21;102429.58;;;0.45;64.70
26436;BME280;15351;52.408;16.826;2023-02-28T03:09:56;102427.58;;;0.39;64.76
26436;BME280;15351;52.408;16.826;2023-02-28T03:12:55;102429.21;;;0.34;64.60
26436;BME280;15351;52.408;16.826;2023-02-28T03:15:34;102423.97;;;0.28;64.71
26436;BME280;15351;52.408;16.826;2023-02-28T03:21:13;102436.68;;;0.28;64.98
26436;BME280;15351;52.408;16.826;2023-02-28T03:23:56;102437.48;;;0.26;64.84
26436;BME280;15351;52.408;16.826;2023-02-28T03:26:26;102433.98;;;0.26;64.91
26436;BME280;15351;52.408;16.826;2023-02-28T03:29:46;102429.81;;;0.24;64.86
26436;BME280;15351;52.408;16.826;2023-02-28T03:32:02;102434.02;;;0.21;64.75
26436;BME280;15351;52.408;16.826;2023-02-28T03:34:38;102440.20;;;0.18;65.07
26436;BME280;15351;52.408;16.826;2023-02-28T03:37:11;102440.90;;;0.18;65.10
26436;BME280;15351;52.408;16.826;2023-02-28T03:39:47;102438.85;;;0.20;64.99
26436;BME280;15351;52.408;16.826;2023-02-28T03:42:19;102438.55;;;0.22;65.00
26436;BME280;15351;52.408;16.826;2023-02-28T03:44:58;102440.15;;;0.19;64.85
26436;BME280;15351;52.408;16.826;2023-02-28T03:47:49;102439.66;;;0.13;64.72
26436;BME280;15351;52.408;16.826;2023-02-28T03:53:23;102441.98;;;-0.00;64.95
26436;BME280;15351;52.408;16.826;2023-02-28T03:56:33;102442.92;;;-0.01;65.18
26436;BME280;15351;52.408;16.826;2023-02-28T03:59:34;102448.73;;;-0.01;65.06
26436;BME280;15351;52.408;16.826;2023-02-28T04:02:08;102450.60;;;0.01;64.98
26436;BME280;15351;52.408;16.826;2023-02-28T04:04:34;102450.45;;;0.01;64.74
26436;BME280;15351;52.408;16.826;2023-02-28T04:07:21;102445.77;;;-0.02;64.66
26436;BME280;15351;52.408;16.826;2023-02-28T04:09:49;102450.11;;;-0.04;64.82
26436;BME280;15351;52.408;16.826;2023-02-28T04:12:16;102453.14;;;-0.05;65.12
26436;BME280;15351;52.408;16.826;2023-02-28T04:14:43;102457.58;;;-0.06;65.18
26436;BME280;15351;52.408;16.826;2023-02-28T04:17:10;102454.82;;;-0.03;64.99
26436;BME280;15351;52.408;16.826;2023-02-28T04:19:36;102456.91;;;-0.02;64.90
26436;BME280;15351;52.408;16.826;2023-02-28T04:22:03;102463.12;;;-0.03;64.87
26436;BME280;15351;52.408;16.826;2023-02-28T04:24:31;102466.79;;;-0.06;64.92
26436;BME280;15351;52.408;16.826;2023-02-28T04:26:59;102465.59;;;-0.11;65.01
26436;BME280;15351;52.408;16.826;2023-02-28T04:29:31;102466.64;;;-0.10;65.03
26436;BME280;15351;52.408;16.826;2023-02-28T04:32:01;102468.33;;;-0.13;65.01
26436;BME280;15351;52.408;16.826;2023-02-28T04:34:29;102470.34;;;-0.14;64.84
26436;BME280;15351;52.408;16.826;2023-02-28T04:36:57;102474.63;;;-0.16;64.90
26436;BME280;15351;52.408;16.826;2023-02-28T04:39:29;102473.98;;;-0.18;64.67
26436;BME280;15351;52.408;16.826;2023-02-28T04:41:57;102478.09;;;-0.23;64.99
26436;BME280;15351;52.408;16.826;2023-02-28T04:44:27;102471.96;;;-0.24;65.10
26436;BME280;15351;52.408;16.826;2023-02-28T04:46:54;102475.91;;;-0.25;65.25
26436;BME280;15351;52.408;16.826;2023-02-28T04:49:41;102477.23;;;-0.28;65.13
26436;BME280;15351;52.408;16.826;2023-02-28T04:52:09;102477.61;;;-0.28;65.08
26436;BME280;15351;52.408;16.826;2023-02-28T04:54:36;102483.45;;;-0.28;65.08
26436;BME280;15351;52.408;16.826;2023-02-28T04:57:05;102482.17;;;-0.27;64.98
26436;BME280;15351;52.408;16.826;2023-02-28T04:59:33;102484.42;;;-0.30;65.04
26436;BME280;15351;52.408;16.826;2023-02-28T05:02:00;102485.16;;;-0.32;65.14
26436;BME280;15351;52.408;16.826;2023-02-28T05:04:35;102488.28;;;-0.35;65.21
26436;BME280;15351;52.408;16.826;2023-02-28T05:07:03;102486.88;;;-0.39;65.07
26436;BME280;15351;52.408;16.826;2023-02-28T05:09:30;102484.07;;;-0.40;65.09
26436;BME280;15351;52.408;16.826;2023-02-28T05:12:00;102483.88;;;-0.39;65.05
26436;BME280;15351;52.408;16.826;2023-02-28T05:14:27;102489.27;;;-0.42;64.90
26436;BME280;15351;52.408;16.826;2023-02-28T05:16:55;102490.27;;;-0.44;65.04
26436;BME280;15351;52.408;16.826;2023-02-28T05:19:22;102490.14;;;-0.45;65.05
26436;BME280;15351;52.408;16.826;2023-02-28T05:21:52;102493.77;;;-0.44;65.00
26436;BME280;15351;52.408;16.826;2023-02-28T05:24:23;102493.09;;;-0.44;64.98
26436;BME280;15351;52.408;16.826;2023-02-28T05:27:02;102492.66;;;-0.47;64.92
26436;BME280;15351;52.408;16.826;2023-02-28T05:29:31;102501.79;;;-0.51;64.88
26436;BME280;15351;52.408;16.826;2023-02-28T05:32:05;102498.94;;;-0.54;64.84
26436;BME280;15351;52.408;16.826;2023-02-28T05:34:32;102498.46;;;-0.56;64.98
26436;BME280;15351;52.408;16.826;2023-02-28T05:37:00;102504.25;;;-0.55;65.10
26436;BME280;15351;52.408;16.826;2023-02-28T05:39:28;102503.61;;;-0.52;65.09
26436;BME280;15351;52.408;16.826;2023-02-28T05:41:55;102506.42;;;-0.51;65.00
26436;BME280;15351;52.408;16.826;2023-02-28T05:44:23;102504.57;;;-0.54;64.81
26436;BME280;15351;52.408;16.826;2023-02-28T05:46:52;102507.82;;;-0.56;64.90
26436;BME280;15351;52.408;16.826;2023-02-28T05:49:21;102512.80;;;-0.56;64.67
26436;BME280;15351;52.408;16.826;2023-02-28T05:51:52;102510.98;;;-0.59;64.91
26436;BME280;15351;52.408;16.826;2023-02-28T05:54:20;102514.11;;;-0.63;64.90
26436;BME280;15351;52.408;16.826;2023-02-28T05:56:46;102519.69;;;-0.61;65.30
26436;BME280;15351;52.408;16.826;2023-02-28T05:59:15;102523.63;;;-0.58;65.12
26436;BME280;15351;52.408;16.826;2023-02-28T06:01:45;102522.17;;;-0.57;65.14
26436;BME280;15351;52.408;16.826;2023-02-28T06:04:38;102526.89;;;-0.55;65.08
26436;BME280;15351;52.408;16.826;2023-02-28T06:07:09;102526.75;;;-0.56;65.33
26436;BME280;15351;52.408;16.826;2023-02-28T06:09:40;102526.95;;;-0.57;65.40
26436;BME280;15351;52.408;16.826;2023-02-28T06:12:14;102525.62;;;-0.54;65.79
26436;BME280;15351;52.408;16.826;2023-02-28T06:14:49;102528.39;;;-0.53;65.71
26436;BME280;15351;52.408;16.826;2023-02-28T06:17:24;102532.84;;;-0.49;65.68
26436;BME280;15351;52.408;16.826;2023-02-28T06:19:51;102534.83;;;-0.45;65.67
26436;BME280;15351;52.408;16.826;2023-02-28T06:22:22;102536.73;;;-0.44;65.82
26436;BME280;15351;52.408;16.826;2023-02-28T06:24:50;102533.18;;;-0.44;66.01
26436;BME280;15351;52.408;16.826;2023-02-28T06:27:22;102532.09;;;-0.39;66.18
26436;BME280;15351;52.408;16.826;2023-02-28T06:29:54;102531.65;;;-0.32;66.25
26436;BME280;15351;52.408;16.826;2023-02-28T06:32:27;102533.47;;;-0.29;66.21
26436;BME280;15351;52.408;16.826;2023-02-28T06:34:57;102533.11;;;-0.24;66.27
26436;BME280;15351;52.408;16.826;2023-02-28T06:37:32;102534.89;;;-0.21;66.29
26436;BME280;15351;52.408;16.826;2023-02-28T06:40:02;102536.33;;;-0.17;66.53
26436;BME280;15351;52.408;16.826;2023-02-28T06:42:32;102534.40;;;-0.12;66.49
26436;BME280;15351;52.408;16.826;2023-02-28T06:45:04;102530.93;;;-0.05;66.77
26436;BME280;15351;52.408;16.826;2023-02-28T06:47:38;102530.17;;;0.01;66.88
26436;BME280;15351;52.408;16.826;2023-02-28T06:50:10;102533.13;;;0.07;66.87
26436;BME280;15351;52.408;16.826;2023-02-28T06:52:37;102536.48;;;0.11;67.09
26436;BME280;15351;52.408;16.826;2023-02-28T06:55:05;102537.95;;;0.19;67.39
26436;BME280;15351;52.408;16.826;2023-02-28T06:57:34;102538.23;;;0.28;67.70
26436;BME280;15351;52.408;16.826;2023-02-28T07:00:14;102540.03;;;0.41;67.73
26436;BME280;15351;52.408;16.826;2023-02-28T07:02:45;102537.33;;;0.50;67.80
26436;BME280;15351;52.408;16.826;2023-02-28T07:05:44;102535.29;;;0.61;67.90
26436;BME280;15351;52.408;16.826;2023-02-28T07:08:11;102535.73;;;0.67;67.86
26436;BME280;15351;52.408;16.826;2023-02-28T07:10:43;102533.98;;;0.75;67.96
26436;BME280;15351;52.408;16.826;2023-02-28T07:13:11;102532.89;;;0.83;68.12
26436;BME280;15351;52.408;16.826;2023-02-28T07:16:10;102530.92;;;0.91;68.08
26436;BME280;15351;52.408;16.826;2023-02-28T07:18:46;102533.16;;;0.98;67.98
26436;BME280;15351;52.408;16.826;2023-02-28T07:21:15;102527.74;;;1.00;67.90
26436;BME280;15351;52.408;16.826;2023-02-28T07:23:48;102529.99;;;1.09;68.19
26436;BME280;15351;52.408;16.826;2023-02-28T07:26:20;102533.73;;;1.20;68.21
26436;BME280;15351;52.408;16.826;2023-02-28T07:28:51;102530.83;;;1.30;68.05
26436;BME280;15351;52.408;16.826;2023-02-28T07:31:24;102527.73;;;1.39;67.99
26436;BME280;15351;52.408;16.826;2023-02-28T07:34:03;102532.97;;;1.45;68.02
26436;BME280;15351;52.408;16.826;2023-02-28T07:36:33;102537.50;;;1.50;68.06
26436;BME280;15351;52.408;16.826;2023-02-28T07:39:02;102539.14;;;1.60;68.20
26436;BME280;15351;52.408;16.826;2023-02-28T07:41:41;102539.14;;;1.68;68.28
26436;BME280;15351;52.408;16.826;2023-02-28T07:44:12;102536.91;;;1.74;68.08
26436;BME280;15351;52.408;16.826;2023-02-28T07:46:38;102542.13;;;1.83;67.97
26436;BME280;15351;52.408;16.826;2023-02-28T07:49:26;102541.79;;;1.91;68.02
26436;BME280;15351;52.408;16.826;2023-02-28T07:51:54;102542.02;;;2.00;68.12
26436;BME280;15351;52.408;16.826;2023-02-28T07:54:26;102544.58;;;2.14;68.16
26436;BME280;15351;52.408;16.826;2023-02-28T07:56:57;102542.63;;;2.24;67.79
26436;BME280;15351;52.408;16.826;2023-02-28T07:59:38;102545.55;;;2.34;67.64
26436;BME280;15351;52.408;16.826;2023-02-28T08:02:17;102543.20;;;2.41;67.48
26436;BME280;15351;52.408;16.826;2023-02-28T08:04:47;102548.45;;;2.46;67.48
26436;BME280;15351;52.408;16.826;2023-02-28T08:07:24;102547.60;;;2.53;67.39
26436;BME280;15351;52.408;16.826;2023-02-28T08:09:51;102545.08;;;2.64;67.44
26436;BME280;15351;52.408;16.826;2023-02-28T08:12:39;102540.33;;;3.27;67.91
26436;BME280;15351;52.408;16.826;2023-02-28T08:15:22;102525.64;;;5.41;66.81
26436;BME280;15351;52.408;16.826;2023-02-28T08:17:54;102509.05;;;7.67;63.43
26436;BME280;15351;52.408;16.826;2023-02-28T08:20:38;102499.42;;;9.32;60.07
26436;BME280;15351;52.408;16.826;2023-02-28T08:23:04;102498.34;;;9.96;57.20
26436;BME280;15351;52.408;16.826;2023-02-28T08:25:30;102498.13;;;10.01;55.74
26436;BME280;15351;52.408;16.826;2023-02-28T08:27:58;102502.45;;;10.03;54.75
26436;BME280;15351;52.408;16.826;2023-02-28T08:30:26;102503.89;;;10.16;53.81
26436;BME280;15351;52.408;16.826;2023-02-28T08:32:53;102501.92;;;10.31;52.83
26436;BME280;15351;52.408;16.826;2023-02-28T08:35:24;102502.17;;;10.43;52.15
26436;BME280;15351;52.408;16.826;2023-02-28T08:37:52;102500.38;;;10.64;51.44
26436;BME280;15351;52.408;16.826;2023-02-28T08:40:24;102499.06;;;10.88;50.86
26436;BME280;15351;52.408;16.826;2023-02-28T08:43:14;102496.09;;;11.03;49.94
26436;BME280;15351;52.408;16.826;2023-02-28T08:46:01;102496.17;;;11.19;49.38
26436;BME280;15351;52.408;16.826;2023-02-28T08:48:31;102494.90;;;11.27;48.82
26436;BME280;15351;52.408;16.826;2023-02-28T08:51:09;102495.64;;;11.31;48.42
26436;BME280;15351;52.408;16.826;2023-02-28T08:53:38;102497.34;;;11.32;47.80
26436;BME280;15351;52.408;16.826;2023-02-28T08:56:08;102494.87;;;11.36;47.51
26436;BME280;15351;52.408;16.826;2023-02-28T08:58:36;102498.14;;;11.39;47.31
26436;BME280;15351;52.408;16.826;2023-02-28T09:01:17;102498.34;;;11.39;47.04
26436;BME280;15351;52.408;16.826;2023-02-28T09:03:47;102498.23;;;11.49;46.95
26436;BME280;15351;52.408;16.826;2023-02-28T09:06:17;102497.64;;;11.67;46.83
26436;BME280;15351;52.408;16.826;2023-02-28T09:09:13;102492.09;;;11.65;46.14
26436;BME280;15351;52.408;16.826;2023-02-28T09:11:41;102488.46;;;11.73;46.11
26436;BME280;15351;52.408;16.826;2023-02-28T09:14:08;102481.27;;;11.79;45.97
26436;BME280;15351;52.408;16.826;2023-02-28T09:16:40;102486.10;;;11.77;45.57
26436;BME280;15351;52.408;16.826;2023-02-28T09:19:10;102486.98;;;11.73;45.62
26436;BME280;15351;52.408;16.826;2023-02-28T09:21:38;102485.73;;;11.71;45.41
26436;BME280;15351;52.408;16.826;2023-02-28T09:24:21;102486.92;;;11.70;45.24
26436;BME280;15351;52.408;16.826;2023-02-28T09:26:48;102485.98;;;11.63;45.05
26436;BME280;15351;52.408;16.826;2023-02-28T09:29:14;102490.49;;;11.61;45.06
26436;BME280;15351;52.408;16.826;2023-02-28T09:31:46;102490.94;;;11.60;44.87
26436;BME280;15351;52.408;16.826;2023-02-28T09:34:15;102490.21;;;11.58;44.81
26436;BME280;15351;52.408;16.826;2023-02-28T09:36:45;102488.63;;;11.51;44.53
26436;BME280;15351;52.408;16.826;2023-02-28T09:39:28;102489.69;;;11.41;44.21
26436;BME280;15351;52.408;16.826;2023-02-28T09:42:20;102494.64;;;11.34;44.39
26436;BME280;15351;52.408;16.826;2023-02-28T09:44:51;102498.63;;;11.25;44.21
26436;BME280;15351;52.408;16.826;2023-02-28T09:47:43;102509.89;;;11.10;43.96
26436;BME280;15351;52.408;16.826;2023-02-28T09:50:45;102510.47;;;10.91;43.80
26436;BME280;15351;52.408;16.826;2023-02-28T09:53:27;102514.95;;;10.79;43.85
26436;BME280;15351;52.408;16.826;2023-02-28T09:56:24;102515.41;;;10.63;44.03
26436;BME280;15351;52.408;16.826;2023-02-28T09:59:29;102517.85;;;10.38;43.99
26436;BME280;15351;52.408;16.826;2023-02-28T10:04:50;102526.70;;;10.34;44.02
26436;BME280;15351;52.408;16.826;2023-02-28T10:08:01;102526.16;;;10.34;44.00
26436;BME280;15351;52.408;16.826;2023-02-28T10:10:37;102526.12;;;10.45;44.28
26436;BME280;15351;52.408;16.826;2023-02-28T10:13:23;102522.20;;;10.57;44.11
26436;BME280;15351;52.408;16.826;2023-02-28T10:16:06;102521.23;;;10.64;43.84
26436;BME280;15351;52.408;16.826;2023-02-28T10:18:53;102519.35;;;10.61;43.45
26436;BME280;15351;52.408;16.826;2023-02-28T10:21:48;102515.46;;;10.50;43.44
26436;BME280;15351;52.408;16.826;2023-02-28T10:27:00;102513.03;;;10.70;43.79
26436;BME280;15351;52.408;16.826;2023-02-28T10:29:32;102512.85;;;10.72;43.12
26436;BME280;15351;52.408;16.826;2023-02-28T10:32:02;102509.27;;;10.68;43.10
26436;BME280;15351;52.408;16.826;2023-02-28T10:34:57;102511.48;;;10.77;43.44
26436;BME280;15351;52.408;16.826;2023-02-28T10:37:23;102510.54;;;10.86;43.21
26436;BME280;15351;52.408;16.826;2023-02-28T10:39:58;102511.02;;;10.93;43.20
26436;BME280;15351;52.408;16.826;2023-02-28T10:42:35;102502.31;;;11.00;42.62
26436;BME280;15351;52.408;16.826;2023-02-28T10:45:17;102502.10;;;11.01;42.38
26436;BME280;15351;52.408;16.826;2023-02-28T10:48:23;102495.06;;;11.11;42.10
26436;BME280;15351;52.408;16.826;2023-02-28T10:50:56;102493.79;;;11.09;41.81
26436;BME280;15351;52.408;16.826;2023-02-28T10:53:31;102487.84;;;11.15;41.44
26436;BME280;15351;52.408;16.826;2023-02-28T11:01:24;102478.98;;;11.32;41.64
26436;BME280;15351;52.408;16.826;2023-02-28T11:04:34;102478.70;;;11.41;41.57
26436;BME280;15351;52.408;16.826;2023-02-28T11:07:30;102473.13;;;11.53;41.48
26436;BME280;15351;52.408;16.826;2023-02-28T11:10:32;102471.27;;;11.64;41.22
26436;BME280;15351;52.408;16.826;2023-02-28T11:13:19;102468.94;;;11.69;41.11
26436;BME280;15351;52.408;16.826;2023-02-28T11:16:00;102466.20;;;11.68;40.38
26436;BME280;15351;52.408;16.826;2023-02-28T11:18:44;102469.60;;;11.67;40.81
26436;BME280;15351;52.408;16.826;2023-02-28T11:21:27;102466.77;;;11.64;40.32
26436;BME280;15351;52.408;16.826;2023-02-28T11:24:39;102459.88;;;11.56;39.65
26436;BME280;15351;52.408;16.826;2023-02-28T11:30:31;102466.90;;;10.93;39.21
26436;BME280;15351;52.408;16.826;2023-02-28T11:35:50;102464.36;;;10.81;40.28
26436;BME280;15351;52.408;16.826;2023-02-28T11:38:18;102456.40;;;10.83;39.69
26436;BME280;15351;52.408;16.826;2023-02-28T11:41:09;102451.95;;;10.98;39.76
26436;BME280;15351;52.408;16.826;2023-02-28T11:46:56;102450.83;;;11.26;40.31
26436;BME280;15351;52.408;16.826;2023-02-28T11:59:06;102439.65;;;11.51;39.70
26436;BME280;15351;52.408;16.826;2023-02-28T12:04:52;102427.50;;;11.42;39.40
26436;BME280;15351;52.408;16.826;2023-02-28T12:07:31;102425.84;;;11.44;39.21
26436;BME280;15351;52.408;16.826;2023-02-28T12:10:25;102421.48;;;11.47;39.47
26436;BME280;15351;52.408;16.826;2023-02-28T12:13:12;102419.68;;;11.45;39.51
26436;BME280;15351;52.408;16.826;2023-02-28T12:16:40;102421.95;;;11.44;39.31
26436;BME280;15351;52.408;16.826;2023-02-28T12:19:21;102420.91;;;11.39;39.53
26436;BME280;15351;52.408;16.826;2023-02-28T12:22:31;102419.50;;;11.38;39.86
26436;BME280;15351;52.408;16.826;2023-02-28T12:25:54;102412.63;;;11.32;39.29
26436;BME280;15351;52.408;16.826;2023-02-28T12:28:44;102410.36;;;11.24;39.15
26436;BME280;15351;52.408;16.826;2023-02-28T12:31:31;102409.89;;;11.24;39.01
26436;BME280;15351;52.408;16.826;2023-02-28T12:34:06;102408.90;;;11.24;39.10
26436;BME280;15351;52.408;16.826;2023-02-28T12:36:44;102407.04;;;11.28;39.40
26436;BME280;15351;52.408;16.826;2023-02-28T12:39:26;102402.02;;;11.28;39.32
26436;BME280;15351;52.408;16.826;2023-02-28T12:42:11;102403.33;;;11.24;39.16
26436;BME280;15351;52.408;16.826;2023-02-28T12:44:49;102403.60;;;11.23;39.17
26436;BME280;15351;52.408;16.826;2023-02-28T12:47:18;102398.80;;;11.20;38.58
26436;BME280;15351;52.408;16.826;2023-02-28T12:49:58;102394.15;;;10.97;38.25
26436;BME280;15351;52.408;16.826;2023-02-28T12:52:41;102393.20;;;10.78;38.82
26436;BME280;15351;52.408;16.826;2023-02-28T12:55:50;102393.60;;;10.81;39.43
26436;BME280;15351;52.408;16.826;2023-02-28T12:58:35;102393.64;;;10.83;39.53
26436;BME280;15351;52.408;16.826;2023-02-28T13:09:16;102387.33;;;10.50;38.95
26436;BME280;15351;52.408;16.826;2023-02-28T13:11:51;102385.44;;;10.49;39.57
26436;BME280;15351;52.408;16.826;2023-02-28T13:14:38;102381.85;;;10.51;39.73
26436;BME280;15351;52.408;16.826;2023-02-28T13:17:29;102379.71;;;10.47;39.63
26436;BME280;15351;52.408;16.826;2023-02-28T13:20:26;102378.39;;;10.47;39.88
26436;BME280;15351;52.408;16.826;2023-02-28T13:26:19;102378.90;;;10.37;39.66
26436;BME280;15351;52.408;16.826;2023-02-28T13:32:45;102372.25;;;10.14;39.02
26436;BME280;15351;52.408;16.826;2023-02-28T13:35:43;102374.17;;;9.94;39.15
26436;BME280;15351;52.408;16.826;2023-02-28T13:38:24;102370.38;;;9.81;39.36
26436;BME280;15351;52.408;16.826;2023-02-28T13:44:24;102360.45;;;9.73;39.86
26436;BME280;15351;52.408;16.826;2023-02-28T13:49:35;102353.83;;;9.68;40.45
26436;BME280;15351;52.408;16.826;2023-02-28T13:58:22;102347.08;;;9.61;39.82
26436;BME280;15351;52.408;16.826;2023-02-28T14:07:57;102339.98;;;9.37;40.29
26436;BME280;15351;52.408;16.826;2023-02-28T14:10:49;102334.45;;;9.21;40.22
26436;BME280;15351;52.408;16.826;2023-02-28T14:13:46;102332.98;;;9.17;40.77
26436;BME280;15351;52.408;16.826;2023-02-28T14:16:59;102334.52;;;9.15;41.30
26436;BME280;15351;52.408;16.826;2023-02-28T14:20:12;102334.27;;;9.10;41.74
26436;BME280;15351;52.408;16.826;2023-02-28T14:23:09;102331.27;;;9.07;41.82
26436;BME280;15351;52.408;16.826;2023-02-28T14:32:31;102327.52;;;8.91;41.92
26436;BME280;15351;52.408;16.826;2023-02-28T14:38:33;102330.41;;;8.82;41.19
26436;BME280;15351;52.408;16.826;2023-02-28T14:41:42;102322.22;;;8.72;41.76
26436;BME280;15351;52.408;16.826;2023-02-28T14:46:45;102312.55;;;8.72;41.42
26436;BME280;15351;52.408;16.826;2023-02-28T14:52:35;102316.83;;;8.66;41.45
26436;BME280;15351;52.408;16.826;2023-02-28T14:55:13;102320.46;;;8.63;41.63
26436;BME280;15351;52.408;16.826;2023-02-28T15:01:02;102324.61;;;8.54;41.72
26436;BME280;15351;52.408;16.826;2023-02-28T15:03:38;102322.52;;;8.49;41.53
26436;BME280;15351;52.408;16.826;2023-02-28T15:06:34;102323.43;;;8.42;41.48
26436;BME280;15351;52.408;16.826;2023-02-28T15:09:23;102323.34;;;8.31;41.77
26436;BME280;15351;52.408;16.826;2023-02-28T15:12:17;102316.67;;;8.23;42.43
26436;BME280;15351;52.408;16.826;2023-02-28T15:14:44;102315.84;;;8.20;42.84
26436;BME280;15351;52.408;16.826;2023-02-28T15:20:49;102308.10;;;8.11;43.78
26436;BME280;15351;52.408;16.826;2023-02-28T15:27:03;102295.77;;;8.01;44.12
26436;BME280;15351;52.408;16.826;2023-02-28T15:29:51;102298.02;;;7.95;44.30
26436;BME280;15351;52.408;16.826;2023-02-28T15:32:33;102295.39;;;7.87;44.68
26436;BME280;15351;52.408;16.826;2023-02-28T15:35:29;102295.32;;;7.79;44.81
26436;BME280;15351;52.408;16.826;2023-02-28T15:38:25;102299.99;;;7.74;44.75